Time;durP1;ratioP1;P1;durP2;ratioP2;P2;SDS_P1;SDS_P2;PMS_P1;PMS_P2;Temp;Humidity;BMP_temperature;BMP_pressure;BME280_temperature;BME280_humidity;BME280_pressure;Samples;Min_cycle;Max_cycle;Signal;HPM_P1;HPM_P2
2022/05/07 00:00:24;;;;;;;36.40;25.48;;;12.70;99.90;;;;;;5012503;28;20072;-54
2022/05/07 00:02:49;;;;;;;31.70;25.23;;;12.60;99.90;;;;;;5028852;28;20056;-56
2022/05/07 00:05:15;;;;;;;30.88;24.42;;;12.60;99.90;;;;;;5032157;28;20021;-55
2022/05/07 00:07:41;;;;;;;28.52;25.02;;;12.60;99.90;;;;;;5032057;28;20140;-55
2022/05/07 00:10:07;;;;;;;28.60;25.52;;;12.50;99.90;;;;;;5031971;28;20380;-54
2022/05/07 00:12:33;;;;;;;31.85;24.00;;;12.50;99.90;;;;;;5031463;28;20041;-57
2022/05/07 00:14:58;;;;;;;26.60;23.70;;;12.50;99.90;;;;;;5031769;28;20049;-56
2022/05/07 00:20:09;;;;;;;28.50;25.40;;;12.50;99.90;;;;;;5032282;28;20041;-56
2022/05/07 00:22:35;;;;;;;30.63;25.55;;;12.50;99.90;;;;;;5031720;28;20479;-54
2022/05/07 00:25:01;;;;;;;26.70;23.33;;;12.50;99.90;;;;;;5032174;28;20049;-54
2022/05/07 00:27:27;;;;;;;33.47;25.02;;;12.50;99.90;;;;;;5030863;28;20014;-52
2022/05/07 00:29:52;;;;;;;24.20;21.65;;;12.50;99.90;;;;;;5030948;28;20029;-52
2022/05/07 00:32:18;;;;;;;33.17;23.08;;;12.40;99.90;;;;;;5030984;28;20636;-56
2022/05/07 00:34:44;;;;;;;31.02;24.20;;;12.40;99.90;;;;;;5030464;28;20113;-56
2022/05/07 00:37:09;;;;;;;29.60;23.48;;;12.40;99.90;;;;;;5031296;28;20132;-56
2022/05/07 00:39:35;;;;;;;25.15;22.45;;;12.40;99.90;;;;;;5031288;28;20025;-55
2022/05/07 00:42:06;;;;;;;26.08;21.92;;;12.40;99.90;;;;;;5031443;28;20026;-56
2022/05/07 00:44:32;;;;;;;24.52;21.83;;;12.40;99.90;;;;;;5030139;28;20025;-54
2022/05/07 00:47:23;;;;;;;27.02;22.67;;;12.40;99.90;;;;;;5031408;28;20857;-53
2022/05/07 00:51:33;;;;;;;27.77;22.60;;;12.40;99.90;;;;;;5029057;28;20095;-56
2022/05/07 00:52:43;;;;;;;26.97;23.07;;;12.30;99.90;;;;;;5011496;28;20042;-56
2022/05/07 00:55:11;;;;;;;24.45;20.50;;;12.30;99.90;;;;;;5010304;28;20277;-54
2022/05/07 00:57:36;;;;;;;24.05;21.42;;;12.40;99.90;;;;;;5011540;28;20072;-54
2022/05/07 01:00:04;;;;;;;26.60;21.92;;;12.30;99.90;;;;;;5011695;28;20029;-55
2022/05/07 01:02:30;;;;;;;25.27;22.52;;;12.30;99.90;;;;;;5011466;28;20018;-55
2022/05/07 01:04:56;;;;;;;25.85;21.27;;;12.30;99.90;;;;;;5011734;28;20088;-57
2022/05/07 01:07:22;;;;;;;27.05;22.80;;;12.30;99.90;;;;;;5011688;28;20026;-57
2022/05/07 01:09:49;;;;;;;24.45;21.83;;;12.30;99.90;;;;;;5025387;28;20032;-53
2022/05/07 01:12:15;;;;;;;25.73;22.52;;;12.30;99.90;;;;;;5031130;28;20384;-56
2022/05/07 01:14:40;;;;;;;24.08;21.55;;;12.30;99.90;;;;;;5030696;28;20473;-54
2022/05/07 01:17:07;;;;;;;26.75;22.85;;;12.30;99.90;;;;;;5027811;28;20025;-55
2022/05/07 01:19:33;;;;;;;24.48;20.67;;;12.30;99.90;;;;;;5030467;28;20021;-57
2022/05/07 01:21:59;;;;;;;24.17;21.70;;;12.30;99.90;;;;;;5030472;28;20048;-54
2022/05/07 01:24:24;;;;;;;27.65;21.70;;;12.30;99.90;;;;;;5030920;28;20356;-53
2022/05/07 01:26:50;;;;;;;24.70;21.27;;;12.30;99.90;;;;;;5019278;28;20384;-55
2022/05/07 01:29:16;;;;;;;26.23;22.90;;;12.30;99.90;;;;;;5015898;28;20017;-55
2022/05/07 01:31:41;;;;;;;25.02;21.45;;;12.30;99.90;;;;;;5030661;28;20034;-54
2022/05/07 01:34:07;;;;;;;25.25;21.95;;;12.30;99.90;;;;;;5031192;28;20040;-56
2022/05/07 01:36:33;;;;;;;26.38;22.00;;;12.30;99.90;;;;;;5030780;28;20144;-57
2022/05/07 01:38:58;;;;;;;27.45;22.23;;;12.30;99.90;;;;;;5031588;28;20061;-56
2022/05/07 01:41:24;;;;;;;25.77;22.98;;;12.30;99.90;;;;;;5033121;28;20029;-56
2022/05/07 01:43:50;;;;;;;27.83;24.83;;;12.30;99.90;;;;;;5015596;28;20014;-57
2022/05/07 01:49:00;;;;;;;31.85;24.10;;;12.30;99.90;;;;;;5015115;28;20108;-56
2022/05/07 01:51:26;;;;;;;31.27;25.88;;;12.20;99.90;;;;;;5014777;28;20080;-56
2022/05/07 01:53:51;;;;;;;31.75;24.52;;;12.20;99.90;;;;;;5014970;28;20401;-54
2022/05/07 01:56:17;;;;;;;29.23;24.92;;;12.20;99.90;;;;;;5014894;28;20026;-55
2022/05/07 01:58:44;;;;;;;31.08;24.60;;;12.20;99.90;;;;;;5014674;28;20054;-53
2022/05/07 02:01:10;;;;;;;29.15;23.85;;;12.20;99.90;;;;;;5032645;28;20018;-55
2022/05/07 02:03:38;;;;;;;34.67;26.70;;;12.20;99.90;;;;;;5015707;28;20056;-55
2022/05/07 02:06:04;;;;;;;30.67;25.80;;;12.20;99.90;;;;;;5013355;28;20551;-54
2022/05/07 02:08:29;;;;;;;36.85;26.10;;;12.20;99.90;;;;;;5014824;28;20045;-56
2022/05/07 02:10:59;;;;;;;31.55;26.48;;;12.20;99.90;;;;;;5020581;28;20475;-54
2022/05/07 02:13:24;;;;;;;33.60;26.80;;;12.20;99.90;;;;;;5033951;28;20025;-55
2022/05/07 02:15:50;;;;;;;32.15;27.13;;;12.20;99.90;;;;;;5033779;28;20091;-56
2022/05/07 02:18:16;;;;;;;33.45;25.80;;;12.20;99.90;;;;;;5033904;28;20428;-55
2022/05/07 02:20:41;;;;;;;27.65;24.65;;;12.20;99.90;;;;;;5032481;28;20041;-56
2022/05/07 02:23:07;;;;;;;38.85;29.58;;;12.20;99.90;;;;;;5030818;28;20465;-56
2022/05/07 02:25:33;;;;;;;34.53;27.90;;;12.20;99.90;;;;;;5033756;28;20029;-53
2022/05/07 02:27:58;;;;;;;31.85;28.38;;;12.20;99.90;;;;;;5033781;28;20037;-55
2022/05/07 02:30:24;;;;;;;34.58;26.55;;;12.20;99.90;;;;;;5023444;28;20049;-55
2022/05/07 02:32:50;;;;;;;33.33;27.60;;;12.20;99.90;;;;;;5014177;28;20041;-56
2022/05/07 02:35:15;;;;;;;34.75;28.90;;;12.20;99.90;;;;;;5014279;28;20033;-55
2022/05/07 02:37:41;;;;;;;41.67;28.25;;;12.20;99.90;;;;;;5014038;28;20527;-54
2022/05/07 02:40:07;;;;;;;35.03;29.65;;;12.20;99.90;;;;;;5014027;28;20022;-55
2022/05/07 02:42:33;;;;;;;36.22;30.00;;;12.20;99.90;;;;;;5023598;28;20532;-55
2022/05/07 02:45:03;;;;;;;39.33;31.35;;;12.20;99.90;;;;;;5033563;28;20116;-56
2022/05/07 02:47:29;;;;;;;37.65;29.33;;;12.20;99.90;;;;;;5031809;28;20061;-56
2022/05/07 02:49:55;;;;;;;39.53;30.75;;;12.20;99.90;;;;;;5033179;28;20056;-57
2022/05/07 02:52:21;;;;;;;35.92;30.20;;;12.20;99.90;;;;;;5023818;28;20029;-57
2022/05/07 02:54:47;;;;;;;38.70;32.95;;;12.10;99.90;;;;;;5017744;28;20030;-56
2022/05/07 02:57:12;;;;;;;41.38;32.40;;;12.10;99.90;;;;;;5014861;28;20034;-56
2022/05/07 02:59:38;;;;;;;39.58;31.67;;;12.10;99.90;;;;;;5013343;28;20053;-57
2022/05/07 03:02:05;;;;;;;40.95;31.48;;;12.20;99.90;;;;;;5013597;28;20034;-54
2022/05/07 03:04:31;;;;;;;45.20;33.08;;;12.20;99.90;;;;;;5030291;28;20026;-55
2022/05/07 03:06:57;;;;;;;39.63;31.85;;;12.20;99.90;;;;;;5033052;28;20041;-55
2022/05/07 03:09:22;;;;;;;42.78;33.80;;;12.10;99.90;;;;;;5031652;28;20041;-53
2022/05/07 03:11:49;;;;;;;43.15;33.90;;;12.20;99.90;;;;;;5029898;28;20029;-57
2022/05/07 03:14:15;;;;;;;45.60;35.97;;;12.20;99.90;;;;;;5031403;28;20045;-56
2022/05/07 03:16:40;;;;;;;50.83;38.95;;;12.20;99.90;;;;;;5032683;28;20040;-55
2022/05/07 03:19:09;;;;;;;43.70;35.70;;;12.20;99.90;;;;;;5031416;28;20048;-57
2022/05/07 03:21:35;;;;;;;51.10;38.63;;;12.20;99.90;;;;;;5032732;28;20021;-56
2022/05/07 03:24:01;;;;;;;47.10;37.72;;;12.10;99.90;;;;;;5023962;28;20029;-56
2022/05/07 03:26:27;;;;;;;49.53;36.40;;;12.20;99.90;;;;;;5013068;28;20037;-57
2022/05/07 03:28:52;;;;;;;47.50;36.13;;;12.20;99.90;;;;;;5013123;28;20034;-54
2022/05/07 03:31:19;;;;;;;52.35;37.72;;;12.20;99.90;;;;;;5030592;28;20029;-56
2022/05/07 03:33:45;;;;;;;48.13;38.13;;;12.20;99.90;;;;;;5031433;28;20381;-57
2022/05/07 03:36:11;;;;;;;50.03;38.92;;;12.10;99.90;;;;;;5032540;28;20469;-56
2022/05/07 03:38:37;;;;;;;52.42;40.65;;;12.20;99.90;;;;;;5032561;28;20061;-55
2022/05/07 03:41:03;;;;;;;50.83;38.72;;;12.20;99.90;;;;;;5031055;28;20508;-54
2022/05/07 03:43:29;;;;;;;56.97;43.17;;;12.20;99.90;;;;;;5015283;28;20030;-55
2022/05/07 03:45:54;;;;;;;62.38;43.50;;;12.10;99.90;;;;;;5014080;28;20029;-55
2022/05/07 03:48:20;;;;;;;57.58;42.80;;;12.20;99.90;;;;;;5013772;28;20053;-56
2022/05/07 03:50:46;;;;;;;74.25;48.78;;;12.20;99.90;;;;;;5012720;28;20041;-56
2022/05/07 03:53:30;;;;;;;68.78;46.53;;;12.20;99.90;;;;;;5015694;28;20092;-56
2022/05/07 03:55:59;;;;;;;;;;;12.20;99.90;;;;;;5032611;28;20049;-55
2022/05/07 03:58:26;;;;;;;65.00;45.15;;;12.20;99.90;;;;;;5021966;28;19913;-55
2022/05/07 04:00:53;;;;;;;69.60;47.00;;;12.20;99.90;;;;;;5031403;28;20080;-54
2022/05/07 04:03:20;;;;;;;64.15;46.03;;;12.20;99.90;;;;;;5016256;28;20079;-56
2022/05/07 04:05:46;;;;;;;68.90;47.53;;;12.20;99.90;;;;;;5031874;28;20088;-55
2022/05/07 04:08:12;;;;;;;66.68;48.03;;;12.20;99.90;;;;;;5032294;28;20025;-55
2022/05/07 04:10:38;;;;;;;66.75;48.17;;;12.20;99.90;;;;;;5032013;28;20354;-57
2022/05/07 04:13:04;;;;;;;60.85;46.47;;;12.20;99.90;;;;;;5031815;28;20035;-55
2022/05/07 04:15:30;;;;;;;58.80;44.20;;;12.20;99.90;;;;;;5030179;28;20099;-56
2022/05/07 04:17:56;;;;;;;59.15;45.85;;;12.20;99.90;;;;;;5032053;28;20397;-56
2022/05/07 04:20:22;;;;;;;59.63;45.47;;;12.20;99.90;;;;;;5030811;28;20021;-57
2022/05/07 04:22:47;;;;;;;68.75;47.45;;;12.20;99.90;;;;;;5031295;28;20029;-57
2022/05/07 04:25:13;;;;;;;65.82;46.50;;;12.20;99.90;;;;;;5013393;28;20038;-56
2022/05/07 04:27:39;;;;;;;57.25;43.90;;;12.20;99.90;;;;;;5010595;28;20040;-58
2022/05/07 04:30:05;;;;;;;54.50;42.95;;;12.20;99.90;;;;;;5012315;28;20514;-56
2022/05/07 04:32:31;;;;;;;59.85;44.25;;;12.20;99.90;;;;;;5027256;28;20025;-55
2022/05/07 04:34:57;;;;;;;59.72;45.95;;;12.20;99.90;;;;;;5031714;28;20082;-55
2022/05/07 04:37:23;;;;;;;61.15;44.50;;;12.20;99.90;;;;;;5017049;28;20026;-56
2022/05/07 04:39:49;;;;;;;59.25;44.65;;;12.30;99.90;;;;;;5010587;28;20022;-55
2022/05/07 04:42:15;;;;;;;59.28;44.17;;;12.20;99.90;;;;;;5019795;28;20413;-56
2022/05/07 04:44:40;;;;;;;61.75;46.95;;;12.20;99.90;;;;;;5031219;28;20424;-56
2022/05/07 04:47:06;;;;;;;60.92;46.35;;;12.20;99.90;;;;;;5029989;28;20099;-53
2022/05/07 04:49:33;;;;;;;57.60;44.00;;;12.30;99.90;;;;;;5031484;28;20044;-57
2022/05/07 04:51:59;;;;;;;60.97;45.75;;;12.20;99.90;;;;;;5026194;28;20368;-55
2022/05/07 04:54:25;;;;;;;63.05;48.03;;;12.20;99.90;;;;;;5018133;28;20034;-55
2022/05/07 04:56:52;;;;;;;66.57;49.30;;;12.20;99.90;;;;;;5011866;28;20117;-57
2022/05/07 04:59:20;;;;;;;59.33;44.88;;;12.20;99.90;;;;;;5031474;28;20022;-56
2022/05/07 05:01:46;;;;;;;66.28;49.10;;;12.30;99.90;;;;;;5031411;28;20021;-56
2022/05/07 05:04:13;;;;;;;62.10;47.70;;;12.20;99.90;;;;;;5031618;28;20025;-55
2022/05/07 05:06:39;;;;;;;62.05;46.60;;;12.30;99.90;;;;;;5031189;28;20028;-58
2022/05/07 05:09:06;;;;;;;63.78;47.70;;;12.30;99.90;;;;;;5015179;28;20018;-56
2022/05/07 05:11:34;;;;;;;62.35;46.38;;;12.30;99.90;;;;;;5011536;28;20365;-55
2022/05/07 05:14:00;;;;;;;58.30;43.95;;;12.30;99.90;;;;;;5012197;28;20426;-52
2022/05/07 05:16:26;;;;;;;57.10;43.08;;;12.30;99.90;;;;;;5015510;28;20572;-56
2022/05/07 05:18:52;;;;;;;59.45;44.17;;;12.30;99.90;;;;;;5015478;28;20022;-54
2022/05/07 05:21:17;;;;;;;54.33;42.22;;;12.30;99.90;;;;;;5015320;28;20033;-56
2022/05/07 05:23:46;;;;;;;55.03;40.92;;;12.30;99.90;;;;;;5020923;28;20033;-57
2022/05/07 05:26:13;;;;;;;53.17;40.88;;;12.40;99.90;;;;;;5035122;28;20087;-55
2022/05/07 05:28:40;;;;;;;49.60;38.78;;;12.40;99.90;;;;;;5034987;28;20022;-53
2022/05/07 05:31:06;;;;;;;55.20;36.97;;;12.40;99.90;;;;;;5034932;28;20443;-56
2022/05/07 05:33:32;;;;;;;46.45;36.65;;;12.50;99.90;;;;;;5034695;28;20536;-55
2022/05/07 05:35:58;;;;;;;44.58;36.45;;;12.50;99.90;;;;;;5034917;28;20061;-56
2022/05/07 05:38:24;;;;;;;42.53;33.65;;;12.50;99.90;;;;;;5034726;28;20040;-57
2022/05/07 05:40:50;;;;;;;42.58;32.38;;;12.60;99.90;;;;;;5033249;28;20022;-57
2022/05/07 05:43:17;;;;;;;39.28;33.88;;;12.60;99.90;;;;;;5016087;28;20389;-55
2022/05/07 05:45:43;;;;;;;42.45;33.70;;;12.60;99.90;;;;;;5014955;28;20022;-57
2022/05/07 05:48:08;;;;;;;38.92;32.80;;;12.60;99.90;;;;;;5016116;28;20026;-55
2022/05/07 05:50:35;;;;;;;33.83;28.05;;;12.60;99.90;;;;;;5014865;28;20189;-55
2022/05/07 05:53:01;;;;;;;36.35;29.85;;;12.60;99.90;;;;;;5014910;28;20099;-55
2022/05/07 05:55:26;;;;;;;30.10;26.50;;;12.60;99.90;;;;;;5034291;28;20030;-57
2022/05/07 05:57:52;;;;;;;34.65;28.15;;;12.70;99.90;;;;;;5034360;28;20021;-56
2022/05/07 06:00:18;;;;;;;31.45;27.73;;;12.70;99.90;;;;;;5034633;28;20025;-56
2022/05/07 06:02:44;;;;;;;32.25;28.48;;;12.70;99.90;;;;;;5034009;28;20029;-57
2022/05/07 06:05:11;;;;;;;32.17;27.38;;;12.70;99.90;;;;;;5018974;28;20548;-57
2022/05/07 06:07:37;;;;;;;32.15;26.80;;;12.80;99.90;;;;;;5025365;28;20014;-55
2022/05/07 06:10:03;;;;;;;34.50;27.40;;;12.90;99.90;;;;;;5014622;28;20485;-55
2022/05/07 06:12:29;;;;;;;31.58;26.95;;;12.90;99.90;;;;;;5028918;28;20025;-54
2022/05/07 06:14:55;;;;;;;32.38;28.27;;;13.00;99.90;;;;;;5034125;28;20099;-54
2022/05/07 06:17:20;;;;;;;33.42;26.90;;;13.00;99.90;;;;;;5034284;28;20029;-55
2022/05/07 06:19:46;;;;;;;36.05;28.98;;;13.00;99.90;;;;;;5033984;28;20022;-56
2022/05/07 06:22:12;;;;;;;36.47;28.48;;;13.00;99.90;;;;;;5033545;28;20053;-57
2022/05/07 06:27:34;;;;;;;34.15;26.65;;;13.10;99.90;;;;;;5014419;28;20532;-58
2022/05/07 06:30:04;;;;;;;33.65;26.65;;;13.10;99.90;;;;;;5013933;28;20476;-56
2022/05/07 06:32:34;;;;;;;34.53;27.80;;;13.30;99.90;;;;;;5013739;28;20481;-57
2022/05/07 06:35:04;;;;;;;33.55;26.38;;;13.30;99.90;;;;;;5027991;28;20117;-58
2022/05/07 06:37:31;;;;;;;30.23;25.85;;;13.30;99.90;;;;;;5033186;28;20487;-52
2022/05/07 06:39:57;;;;;;;32.55;26.38;;;13.30;99.90;;;;;;5033292;28;20404;-52
2022/05/07 06:42:23;;;;;;;33.75;27.77;;;13.20;99.90;;;;;;5026459;28;20034;-58
2022/05/07 06:44:49;;;;;;;28.85;25.75;;;13.20;99.90;;;;;;5012470;28;20452;-56
2022/05/07 06:47:16;;;;;;;29.15;24.83;;;13.30;99.90;;;;;;5013835;28;20301;-56
2022/05/07 06:49:43;;;;;;;29.67;24.75;;;13.40;99.90;;;;;;5012741;28;20083;-56
2022/05/07 06:52:08;;;;;;;33.17;26.13;;;13.30;99.90;;;;;;5020646;28;20397;-57
2022/05/07 06:54:34;;;;;;;29.00;25.85;;;13.30;99.90;;;;;;5032323;28;20079;-56
2022/05/07 06:57:00;;;;;;;30.80;26.13;;;13.30;99.90;;;;;;5032046;28;20029;-56
2022/05/07 06:59:36;;;;;;;31.35;26.55;;;13.30;99.90;;;;;;5021446;28;20029;-56
2022/05/07 07:02:02;;;;;;;35.72;27.15;;;13.30;99.90;;;;;;5011754;28;20551;-55
2022/05/07 07:04:28;;;;;;;38.28;25.88;;;13.30;99.90;;;;;;5021564;28;20044;-58
2022/05/07 07:06:54;;;;;;;33.00;24.45;;;13.30;99.90;;;;;;5031329;28;20481;-57
2022/05/07 07:09:20;;;;;;;29.30;25.27;;;13.40;99.90;;;;;;5032266;28;20065;-57
2022/05/07 07:11:45;;;;;;;31.75;27.08;;;13.40;99.90;;;;;;5025421;28;20954;-56
2022/05/07 07:14:12;;;;;;;35.13;27.67;;;13.40;99.90;;;;;;5011442;28;20068;-54
2022/05/07 07:16:37;;;;;;;30.23;25.23;;;13.40;99.90;;;;;;5011710;28;20503;-55
2022/05/07 07:19:04;;;;;;;32.05;26.13;;;13.30;99.90;;;;;;5012187;28;20045;-54
2022/05/07 07:21:30;;;;;;;30.25;24.95;;;13.30;99.90;;;;;;5013560;28;20044;-56
2022/05/07 07:23:55;;;;;;;32.80;24.08;;;13.40;99.90;;;;;;5013366;28;20517;-53
2022/05/07 07:26:21;;;;;;;32.70;25.15;;;13.40;99.90;;;;;;5012970;28;20030;-53
2022/05/07 07:28:47;;;;;;;31.65;25.30;;;13.20;99.90;;;;;;5012516;28;20026;-56
2022/05/07 07:31:13;;;;;;;34.35;27.08;;;13.30;99.90;;;;;;5012972;28;20452;-52
2022/05/07 07:33:39;;;;;;;36.65;27.50;;;13.20;99.90;;;;;;5012663;28;20026;-55
2022/05/07 07:36:09;;;;;;;34.47;28.13;;;13.20;99.90;;;;;;5012582;28;20014;-56
2022/05/07 07:38:37;;;;;;;33.63;27.60;;;13.20;99.90;;;;;;5011715;28;20172;-55
2022/05/07 07:41:03;;;;;;;35.15;28.00;;;13.20;99.90;;;;;;5012755;28;20038;-54
2022/05/07 07:43:29;;;;;;;36.20;28.67;;;13.30;99.90;;;;;;5024639;28;20044;-52
2022/05/07 07:48:40;;;;;;;35.80;29.67;;;13.10;99.90;;;;;;5028282;28;20051;-51
2022/05/07 07:51:07;;;;;;;33.47;27.25;;;13.10;99.90;;;;;;5012902;28;20026;-53
2022/05/07 07:53:32;;;;;;;35.97;28.15;;;13.20;99.90;;;;;;5012651;28;20026;-56
2022/05/07 07:55:58;;;;;;;34.05;27.48;;;13.30;99.90;;;;;;5012357;28;20033;-52
2022/05/07 07:58:24;;;;;;;35.65;29.25;;;13.30;99.90;;;;;;5027919;28;20029;-52
2022/05/07 08:00:49;;;;;;;36.25;29.27;;;13.40;99.90;;;;;;5029803;28;20079;-54
2022/05/07 08:03:17;;;;;;;36.22;28.73;;;13.40;99.90;;;;;;5031578;28;20040;-55
2022/05/07 08:05:44;;;;;;;37.83;29.52;;;13.50;99.90;;;;;;5012529;28;20108;-56
2022/05/07 08:13:42;;;;;;;33.53;26.45;;;13.50;99.90;;;;;;5011192;28;20083;-56
2022/05/07 08:16:09;;;;;;;39.13;34.78;;;13.60;99.90;;;;;;5011137;28;20055;-49
2022/05/07 08:18:37;;;;;;;33.83;28.73;;;13.70;99.90;;;;;;5026881;28;20029;-54
2022/05/07 08:21:07;;;;;;;41.42;34.20;;;13.80;99.90;;;;;;5029256;28;20076;-55
2022/05/07 08:23:32;;;;;;;32.67;25.15;;;13.70;99.90;;;;;;5020116;28;20466;-55
2022/05/07 08:25:58;;;;;;;36.10;28.95;;;13.70;99.90;;;;;;5012239;28;20029;-57
2022/05/07 08:28:24;;;;;;;33.17;29.70;;;13.70;99.90;;;;;;5011895;28;20567;-56
2022/05/07 08:30:53;;;;;;;28.60;24.25;;;13.60;99.90;;;;;;5011925;28;20466;-55
2022/05/07 08:33:19;;;;;;;31.80;24.25;;;13.70;99.90;;;;;;5011914;28;20030;-55
2022/05/07 08:35:46;;;;;;;30.17;24.98;;;13.70;99.90;;;;;;5011843;28;20045;-57
2022/05/07 08:38:12;;;;;;;27.17;22.92;;;13.70;99.90;;;;;;5011940;28;20120;-55
2022/05/07 08:40:40;;;;;;;28.23;21.80;;;13.70;99.90;;;;;;5011900;28;20160;-54
2022/05/07 08:43:06;;;;;;;24.02;21.42;;;13.80;99.90;;;;;;5015916;28;20473;-56
2022/05/07 08:45:32;;;;;;;26.15;23.27;;;14.00;99.90;;;;;;5012543;28;20025;-56
2022/05/07 08:47:59;;;;;;;28.95;22.50;;;14.00;99.90;;;;;;5014374;28;20025;-52
2022/05/07 08:50:26;;;;;;;24.55;21.08;;;13.90;99.90;;;;;;5030988;28;20097;-52
2022/05/07 08:52:52;;;;;;;22.55;19.67;;;14.00;99.90;;;;;;5027044;28;20465;-56
2022/05/07 08:55:20;;;;;;;33.80;27.63;;;13.90;99.90;;;;;;5011688;28;20029;-55
2022/05/07 08:57:49;;;;;;;23.27;20.30;;;14.00;99.90;;;;;;5023357;28;20045;-53
2022/05/07 09:00:21;;;;;;;20.60;18.40;;;14.10;99.90;;;;;;5029794;28;20033;-56
2022/05/07 09:02:49;;;;;;;22.00;17.58;;;14.40;99.90;;;;;;5028852;28;20025;-56
2022/05/07 09:05:18;;;;;;;19.17;16.65;;;14.80;99.90;;;;;;5012819;28;20053;-53
2022/05/07 09:07:54;;;;;;;18.42;16.52;;;14.60;99.90;;;;;;5011518;28;20489;-55
2022/05/07 09:10:20;;;;;;;23.65;16.15;;;14.50;99.90;;;;;;5011913;28;20038;-55
2022/05/07 09:12:46;;;;;;;20.83;17.05;;;14.40;99.90;;;;;;5011904;28;20133;-54
2022/05/07 09:15:12;;;;;;;17.48;15.68;;;14.10;99.90;;;;;;5031368;28;20128;-54
2022/05/07 09:17:38;;;;;;;20.73;18.48;;;14.00;99.90;;;;;;5029890;28;20111;-56
2022/05/07 09:20:15;;;;;;;19.00;17.00;;;13.70;99.90;;;;;;5031097;28;20033;-54
2022/05/07 09:23:10;;;;;;;19.20;16.73;;;13.60;99.90;;;;;;5029272;28;20045;-57
2022/05/07 09:25:45;;;;;;;20.02;17.50;;;13.50;99.90;;;;;;5030866;28;20167;-56
2022/05/07 09:28:11;;;;;;;19.27;15.77;;;13.70;99.90;;;;;;5030818;28;20009;-57
2022/05/07 09:30:38;;;;;;;18.50;16.60;;;13.70;99.90;;;;;;5030917;28;20357;-55
2022/05/07 09:33:06;;;;;;;23.13;15.85;;;13.80;99.90;;;;;;5031037;28;20029;-52
2022/05/07 09:35:51;;;;;;;24.25;19.77;;;13.80;99.90;;;;;;5018024;28;20022;-56
2022/05/07 09:38:24;;;;;;;41.45;26.75;;;13.60;99.90;;;;;;5029819;28;20112;-57
2022/05/07 09:40:51;;;;;;;25.90;19.38;;;13.60;99.90;;;;;;5030624;28;20029;-55
2022/05/07 09:43:17;;;;;;;17.73;15.85;;;13.50;99.90;;;;;;5014611;28;20052;-54
2022/05/07 09:45:44;;;;;;;17.80;15.95;;;13.50;99.90;;;;;;5019283;28;20116;-52
2022/05/07 09:48:12;;;;;;;20.52;16.30;;;13.60;99.90;;;;;;5014855;28;20060;-55
2022/05/07 09:58:39;;;;;;;14.60;13.02;;;14.50;99.90;;;;;;5030539;28;20040;-56
2022/05/07 10:01:42;;;;;;;14.85;13.32;;;14.90;99.90;;;;;;5032928;28;20060;-57
2022/05/07 10:04:35;;;;;;;16.08;13.90;;;15.10;99.90;;;;;;5014441;28;20033;-57
2022/05/07 10:07:23;;;;;;;15.77;13.30;;;15.40;99.90;;;;;;5017666;28;20041;-56
2022/05/07 10:10:02;;;;;;;21.27;13.63;;;15.40;99.90;;;;;;5034253;28;20026;-55
2022/05/07 10:12:28;;;;;;;16.05;13.73;;;15.50;99.90;;;;;;5033778;28;20037;-55
2022/05/07 10:15:12;;;;;;;14.38;12.93;;;15.20;99.90;;;;;;5033818;28;20065;-57
2022/05/07 10:17:38;;;;;;;15.55;13.95;;;15.30;99.90;;;;;;5033773;28;20427;-56
2022/05/07 10:20:06;;;;;;;15.13;12.68;;;15.10;99.90;;;;;;5034039;28;20033;-56
2022/05/07 10:22:32;;;;;;;16.25;14.40;;;14.90;99.90;;;;;;5033535;28;20053;-56
2022/05/07 10:25:05;;;;;;;14.70;13.20;;;15.00;99.90;;;;;;5034236;28;20055;-56
2022/05/07 10:27:33;;;;;;;14.83;13.37;;;15.00;99.90;;;;;;5033666;28;20018;-55
2022/05/07 10:30:21;;;;;;;16.83;15.02;;;14.90;99.90;;;;;;5033703;28;20268;-56
2022/05/07 10:33:03;;;;;;;17.23;13.75;;;14.80;99.90;;;;;;5033696;28;20021;-52
2022/05/07 10:35:51;;;;;;;22.38;14.55;;;14.80;99.90;;;;;;5033138;28;20045;-56
2022/05/07 10:38:33;;;;;;;15.05;13.52;;;14.70;99.90;;;;;;5032774;28;20040;-56
2022/05/07 10:41:05;;;;;;;14.63;12.93;;;14.60;99.90;;;;;;5023307;28;20052;-56
2022/05/07 10:43:33;;;;;;;16.20;12.90;;;14.40;99.90;;;;;;5025582;28;20029;-55
2022/05/07 10:46:07;;;;;;;15.32;13.77;;;14.50;99.90;;;;;;5014064;28;20030;-54
2022/05/07 10:48:47;;;;;;;14.75;13.25;;;14.80;99.90;;;;;;5013497;28;20041;-53
2022/05/07 10:51:17;;;;;;;16.50;14.75;;;14.90;99.90;;;;;;5013589;28;20032;-54
2022/05/07 10:53:42;;;;;;;14.85;13.25;;;15.10;99.90;;;;;;5027140;28;20086;-56
2022/05/07 10:56:16;;;;;;;17.88;13.85;;;15.20;99.90;;;;;;5033385;28;20025;-57
2022/05/07 10:59:01;;;;;;;15.90;14.35;;;15.30;99.90;;;;;;5031282;28;20370;-57
2022/05/07 11:01:28;;;;;;;14.43;12.93;;;15.20;99.90;;;;;;5033143;28;20104;-56
2022/05/07 11:04:22;;;;;;;17.25;13.88;;;15.40;99.90;;;;;;5032995;28;20026;-56
2022/05/07 11:06:52;;;;;;;13.98;12.65;;;15.20;99.90;;;;;;5032724;28;20373;-56
2022/05/07 11:09:26;;;;;;;20.98;16.38;;;15.20;99.90;;;;;;5029730;28;20038;-57
2022/05/07 11:11:56;;;;;;;20.40;13.13;;;15.10;99.90;;;;;;5031354;28;20033;-56
2022/05/07 11:14:23;;;;;;;15.85;13.65;;;15.10;99.90;;;;;;5033429;28;20041;-57
2022/05/07 11:16:50;;;;;;;18.33;13.80;;;15.30;99.90;;;;;;5027675;28;20180;-56
2022/05/07 11:19:31;;;;;;;19.45;14.70;;;15.50;99.90;;;;;;5013079;28;20683;-55
2022/05/07 11:21:59;;;;;;;15.35;13.27;;;15.90;99.90;;;;;;5022075;28;20029;-58
2022/05/07 11:24:25;;;;;;;13.98;12.57;;;16.10;99.90;;;;;;5032411;28;20040;-57
2022/05/07 11:26:57;;;;;;;16.08;11.77;;;16.50;99.90;;;;;;5037694;28;20025;-56
2022/05/07 11:29:23;;;;;;;14.15;12.20;;;16.80;99.90;;;;;;5038436;28;20080;-58
2022/05/07 11:31:57;;;;;;;13.80;12.35;;;17.10;99.90;;;;;;5037618;28;20033;-57
2022/05/07 11:34:31;;;;;;;17.63;14.32;;;17.10;99.90;;;;;;5034930;28;20955;-57
2022/05/07 11:37:12;;;;;;;14.18;12.75;;;17.20;99.90;;;;;;5037287;28;20579;-56
2022/05/07 11:39:55;;;;;;;16.45;14.52;;;17.10;99.90;;;;;;5033616;28;20033;-55
2022/05/07 11:42:33;;;;;;;15.50;12.75;;;16.90;99.90;;;;;;5031486;28;20029;-58
2022/05/07 11:47:54;;;;;;;15.05;12.48;;;16.50;99.90;;;;;;5021654;28;20036;-61
2022/05/07 11:50:28;;;;;;;15.40;13.88;;;16.20;99.90;;;;;;5021278;28;20651;-57
2022/05/07 11:52:55;;;;;;;14.80;13.25;;;16.10;99.90;;;;;;5032349;28;20086;-58
2022/05/07 11:55:29;;;;;;;16.42;13.57;;;16.10;99.90;;;;;;5040196;28;20044;-56
2022/05/07 11:57:56;;;;;;;14.63;13.07;;;16.00;99.90;;;;;;5021632;28;20040;-58
2022/05/07 12:00:25;;;;;;;15.25;13.65;;;15.90;99.90;;;;;;5020384;28;20107;-57
2022/05/07 12:03:18;;;;;;;19.20;15.63;;;15.80;99.90;;;;;;5021929;28;20043;-55
2022/05/07 12:05:49;;;;;;;20.00;15.73;;;15.50;99.90;;;;;;5037629;28;20045;-57
2022/05/07 12:08:35;;;;;;;22.85;19.50;;;15.60;99.90;;;;;;5041520;28;20020;-57
2022/05/07 12:11:02;;;;;;;22.08;17.45;;;15.50;99.90;;;;;;5039906;28;20068;-55
2022/05/07 12:13:28;;;;;;;21.33;19.05;;;15.50;99.90;;;;;;5040861;28;20063;-58
2022/05/07 12:18:49;;;;;;;18.33;16.30;;;15.60;99.90;;;;;;5030701;28;20095;-55
2022/05/07 12:21:15;;;;;;;18.70;15.98;;;15.40;99.90;;;;;;5021194;28;20163;-57
2022/05/07 12:31:55;;;;;;;17.27;15.48;;;15.60;99.90;;;;;;5031531;28;20393;-57
2022/05/07 12:34:21;;;;;;;16.50;14.70;;;15.50;99.90;;;;;;5031571;28;20438;-55
2022/05/07 12:36:47;;;;;;;18.35;16.42;;;15.40;99.90;;;;;;5031139;28;20537;-58
2022/05/07 12:39:13;;;;;;;23.35;16.70;;;15.30;99.90;;;;;;5034158;28;20036;-56
2022/05/07 12:41:42;;;;;;;21.38;15.80;;;14.90;99.90;;;;;;5051018;28;20490;-57
2022/05/07 12:44:09;;;;;;;26.95;16.65;;;14.80;99.90;;;;;;5051472;28;20074;-54
2022/05/07 12:46:34;;;;;;;16.77;15.05;;;14.80;99.90;;;;;;5034922;28;20029;-56
2022/05/07 12:49:01;;;;;;;17.77;15.88;;;14.90;99.90;;;;;;5028290;28;20745;-56
2022/05/07 12:51:27;;;;;;;19.40;17.35;;;14.90;99.90;;;;;;5021972;28;20778;-58
2022/05/07 12:53:54;;;;;;;37.47;29.80;;;15.00;99.90;;;;;;5027917;28;20112;-56
2022/05/07 12:56:20;;;;;;;25.98;21.25;;;15.20;99.90;;;;;;5040762;28;20029;-56
2022/05/07 12:58:47;;;;;;;22.27;19.98;;;15.40;99.90;;;;;;5026646;28;20036;-57
2022/05/07 13:01:13;;;;;;;20.52;17.00;;;15.50;99.90;;;;;;5020663;28;20025;-57
2022/05/07 13:03:38;;;;;;;24.55;16.38;;;15.50;99.90;;;;;;5020477;28;20518;-57
2022/05/07 13:06:04;;;;;;;17.13;15.43;;;15.50;99.90;;;;;;5020661;28;20049;-55
2022/05/07 13:08:30;;;;;;;18.30;14.68;;;15.60;99.90;;;;;;5019269;28;20497;-57
2022/05/07 13:10:56;;;;;;;26.10;16.23;;;15.40;99.90;;;;;;5019758;28;20060;-56